sensor_id;sensor_type;location;lat;lon;timestamp;P1;durP1;ratioP1;P2;durP2;ratioP2
79790;SDS011;69278;52.220;5.172;2023-05-24T00:00:06;15.98;;;3.17;;
79790;SDS011;69278;52.220;5.172;2023-05-24T00:02:38;12.32;;;2.70;;
79790;SDS011;69278;52.220;5.172;2023-05-24T00:05:07;10.47;;;2.90;;
79790;SDS011;69278;52.220;5.172;2023-05-24T00:07:36;14.32;;;3.08;;
79790;SDS011;69278;52.220;5.172;2023-05-24T00:10:03;17.02;;;3.10;;
79790;SDS011;69278;52.220;5.172;2023-05-24T00:12:31;13.43;;;2.80;;
79790;SDS011;69278;52.220;5.172;2023-05-24T00:14:58;13.68;;;2.90;;
79790;SDS011;69278;52.220;5.172;2023-05-24T00:17:25;12.83;;;2.80;;
79790;SDS011;69278;52.220;5.172;2023-05-24T00:19:51;11.85;;;2.60;;
79790;SDS011;69278;52.220;5.172;2023-05-24T00:22:18;17.58;;;3.20;;
79790;SDS011;69278;52.220;5.172;2023-05-24T00:24:46;14.38;;;2.78;;
79790;SDS011;69278;52.220;5.172;2023-05-24T00:27:13;13.13;;;2.90;;
79790;SDS011;69278;52.220;5.172;2023-05-24T00:29:40;12.73;;;3.03;;
79790;SDS011;69278;52.220;5.172;2023-05-24T00:32:07;14.18;;;3.13;;
79790;SDS011;69278;52.220;5.172;2023-05-24T00:34:34;13.35;;;2.55;;
79790;SDS011;69278;52.220;5.172;2023-05-24T00:37:00;12.77;;;3.17;;
79790;SDS011;69278;52.220;5.172;2023-05-24T00:39:27;11.55;;;3.03;;
79790;SDS011;69278;52.220;5.172;2023-05-24T00:41:53;15.20;;;2.80;;
79790;SDS011;69278;52.220;5.172;2023-05-24T00:44:20;10.02;;;2.70;;
79790;SDS011;69278;52.220;5.172;2023-05-24T00:46:46;11.30;;;3.08;;
79790;SDS011;69278;52.220;5.172;2023-05-24T00:49:13;10.85;;;3.00;;
79790;SDS011;69278;52.220;5.172;2023-05-24T00:51:39;15.65;;;2.80;;
79790;SDS011;69278;52.220;5.172;2023-05-24T00:54:06;12.23;;;2.80;;
79790;SDS011;69278;52.220;5.172;2023-05-24T00:56:33;15.60;;;3.20;;
79790;SDS011;69278;52.220;5.172;2023-05-24T00:59:00;12.07;;;3.00;;
79790;SDS011;69278;52.220;5.172;2023-05-24T01:01:27;13.35;;;2.70;;
79790;SDS011;69278;52.220;5.172;2023-05-24T01:03:56;13.38;;;3.15;;
79790;SDS011;69278;52.220;5.172;2023-05-24T01:06:26;11.00;;;3.10;;
79790;SDS011;69278;52.220;5.172;2023-05-24T01:09:01;13.30;;;2.85;;
79790;SDS011;69278;52.220;5.172;2023-05-24T01:12:19;12.27;;;3.28;;
79790;SDS011;69278;52.220;5.172;2023-05-24T01:17:20;11.82;;;2.90;;
79790;SDS011;69278;52.220;5.172;2023-05-24T01:25:38;15.13;;;3.15;;
79790;SDS011;69278;52.220;5.172;2023-05-24T01:28:07;14.05;;;2.88;;
79790;SDS011;69278;52.220;5.172;2023-05-24T01:30:34;11.18;;;3.00;;
79790;SDS011;69278;52.220;5.172;2023-05-24T01:33:01;15.40;;;3.10;;
79790;SDS011;69278;52.220;5.172;2023-05-24T01:35:28;17.55;;;3.20;;
79790;SDS011;69278;52.220;5.172;2023-05-24T01:37:55;11.68;;;2.90;;
79790;SDS011;69278;52.220;5.172;2023-05-24T01:40:21;13.07;;;3.20;;
79790;SDS011;69278;52.220;5.172;2023-05-24T01:42:51;14.32;;;2.85;;
79790;SDS011;69278;52.220;5.172;2023-05-24T01:45:28;18.17;;;3.30;;
79790;SDS011;69278;52.220;5.172;2023-05-24T01:48:26;14.25;;;3.08;;
79790;SDS011;69278;52.220;5.172;2023-05-24T01:51:00;14.98;;;3.08;;
79790;SDS011;69278;52.220;5.172;2023-05-24T01:53:32;13.07;;;2.97;;
79790;SDS011;69278;52.220;5.172;2023-05-24T01:56:01;14.18;;;2.90;;
79790;SDS011;69278;52.220;5.172;2023-05-24T01:58:30;10.23;;;2.90;;
79790;SDS011;69278;52.220;5.172;2023-05-24T02:00:58;15.80;;;3.50;;
79790;SDS011;69278;52.220;5.172;2023-05-24T02:03:25;16.40;;;2.92;;
79790;SDS011;69278;52.220;5.172;2023-05-24T02:05:52;13.52;;;3.00;;
79790;SDS011;69278;52.220;5.172;2023-05-24T02:08:18;19.73;;;3.47;;
79790;SDS011;69278;52.220;5.172;2023-05-24T02:10:45;16.20;;;3.07;;
79790;SDS011;69278;52.220;5.172;2023-05-24T02:13:11;15.95;;;3.55;;
79790;SDS011;69278;52.220;5.172;2023-05-24T02:15:38;17.27;;;3.08;;
79790;SDS011;69278;52.220;5.172;2023-05-24T02:18:07;15.32;;;3.13;;
79790;SDS011;69278;52.220;5.172;2023-05-24T02:20:33;13.65;;;3.20;;
79790;SDS011;69278;52.220;5.172;2023-05-24T02:23:02;19.47;;;3.30;;
79790;SDS011;69278;52.220;5.172;2023-05-24T02:25:29;16.42;;;3.03;;
79790;SDS011;69278;52.220;5.172;2023-05-24T02:27:57;15.00;;;3.20;;
79790;SDS011;69278;52.220;5.172;2023-05-24T02:30:24;14.43;;;3.15;;
79790;SDS011;69278;52.220;5.172;2023-05-24T02:32:51;13.63;;;2.95;;
79790;SDS011;69278;52.220;5.172;2023-05-24T02:35:18;14.97;;;3.40;;
79790;SDS011;69278;52.220;5.172;2023-05-24T02:37:44;17.63;;;3.90;;
79790;SDS011;69278;52.220;5.172;2023-05-24T02:40:11;19.35;;;3.53;;
79790;SDS011;69278;52.220;5.172;2023-05-24T02:42:38;14.43;;;3.58;;
79790;SDS011;69278;52.220;5.172;2023-05-24T02:45:05;15.40;;;3.33;;
79790;SDS011;69278;52.220;5.172;2023-05-24T02:47:32;16.83;;;3.47;;
79790;SDS011;69278;52.220;5.172;2023-05-24T02:49:58;17.73;;;3.45;;
79790;SDS011;69278;52.220;5.172;2023-05-24T02:52:25;16.98;;;3.35;;
79790;SDS011;69278;52.220;5.172;2023-05-24T02:54:51;13.23;;;2.80;;
79790;SDS011;69278;52.220;5.172;2023-05-24T02:57:18;12.15;;;3.30;;
79790;SDS011;69278;52.220;5.172;2023-05-24T02:59:44;14.87;;;3.23;;
79790;SDS011;69278;52.220;5.172;2023-05-24T03:02:11;13.77;;;3.33;;
79790;SDS011;69278;52.220;5.172;2023-05-24T03:04:41;14.02;;;3.33;;
79790;SDS011;69278;52.220;5.172;2023-05-24T03:07:07;12.45;;;3.20;;
79790;SDS011;69278;52.220;5.172;2023-05-24T03:09:34;13.45;;;3.30;;
79790;SDS011;69278;52.220;5.172;2023-05-24T03:12:00;13.87;;;3.10;;
79790;SDS011;69278;52.220;5.172;2023-05-24T03:14:27;15.75;;;3.15;;
79790;SDS011;69278;52.220;5.172;2023-05-24T03:16:53;19.50;;;4.28;;
79790;SDS011;69278;52.220;5.172;2023-05-24T03:19:20;16.67;;;3.63;;
79790;SDS011;69278;52.220;5.172;2023-05-24T03:21:46;16.65;;;3.70;;
79790;SDS011;69278;52.220;5.172;2023-05-24T03:24:13;14.73;;;3.70;;
79790;SDS011;69278;52.220;5.172;2023-05-24T03:26:39;14.90;;;3.63;;
79790;SDS011;69278;52.220;5.172;2023-05-24T03:29:06;13.23;;;3.67;;
79790;SDS011;69278;52.220;5.172;2023-05-24T03:31:32;14.88;;;3.85;;
79790;SDS011;69278;52.220;5.172;2023-05-24T03:33:59;14.20;;;3.90;;
79790;SDS011;69278;52.220;5.172;2023-05-24T03:36:26;15.83;;;4.50;;
79790;SDS011;69278;52.220;5.172;2023-05-24T03:38:54;16.05;;;4.07;;
79790;SDS011;69278;52.220;5.172;2023-05-24T03:41:23;14.00;;;4.10;;
79790;SDS011;69278;52.220;5.172;2023-05-24T03:43:50;17.02;;;4.55;;
79790;SDS011;69278;52.220;5.172;2023-05-24T03:46:17;16.65;;;4.50;;
79790;SDS011;69278;52.220;5.172;2023-05-24T03:48:44;15.17;;;4.50;;
79790;SDS011;69278;52.220;5.172;2023-05-24T03:51:10;16.60;;;4.32;;
79790;SDS011;69278;52.220;5.172;2023-05-24T03:53:37;22.10;;;5.05;;
79790;SDS011;69278;52.220;5.172;2023-05-24T03:56:03;16.80;;;4.30;;
79790;SDS011;69278;52.220;5.172;2023-05-24T03:58:30;20.00;;;4.70;;
79790;SDS011;69278;52.220;5.172;2023-05-24T04:00:57;16.47;;;4.80;;
79790;SDS011;69278;52.220;5.172;2023-05-24T04:03:23;16.00;;;4.28;;
79790;SDS011;69278;52.220;5.172;2023-05-24T04:05:52;21.80;;;4.90;;
79790;SDS011;69278;52.220;5.172;2023-05-24T04:08:18;19.20;;;4.50;;
79790;SDS011;69278;52.220;5.172;2023-05-24T04:10:45;14.38;;;4.20;;
79790;SDS011;69278;52.220;5.172;2023-05-24T04:13:12;16.43;;;4.30;;
79790;SDS011;69278;52.220;5.172;2023-05-24T04:15:38;17.02;;;3.95;;
79790;SDS011;69278;52.220;5.172;2023-05-24T04:18:05;20.50;;;3.95;;
79790;SDS011;69278;52.220;5.172;2023-05-24T04:20:31;18.35;;;4.38;;
79790;SDS011;69278;52.220;5.172;2023-05-24T04:22:58;15.73;;;4.00;;
79790;SDS011;69278;52.220;5.172;2023-05-24T04:25:25;14.53;;;4.40;;
79790;SDS011;69278;52.220;5.172;2023-05-24T04:27:52;16.10;;;4.43;;
79790;SDS011;69278;52.220;5.172;2023-05-24T04:30:19;16.17;;;4.40;;
79790;SDS011;69278;52.220;5.172;2023-05-24T04:32:46;18.63;;;4.82;;
79790;SDS011;69278;52.220;5.172;2023-05-24T04:35:13;20.13;;;4.65;;
79790;SDS011;69278;52.220;5.172;2023-05-24T04:37:40;16.13;;;4.57;;
79790;SDS011;69278;52.220;5.172;2023-05-24T04:40:07;20.55;;;4.85;;
79790;SDS011;69278;52.220;5.172;2023-05-24T04:42:34;23.38;;;4.97;;
79790;SDS011;69278;52.220;5.172;2023-05-24T04:45:01;18.90;;;5.10;;
79790;SDS011;69278;52.220;5.172;2023-05-24T04:47:28;12.73;;;3.97;;
79790;SDS011;69278;52.220;5.172;2023-05-24T04:49:55;15.97;;;4.63;;
79790;SDS011;69278;52.220;5.172;2023-05-24T04:52:21;17.45;;;4.60;;
79790;SDS011;69278;52.220;5.172;2023-05-24T04:54:48;16.90;;;4.90;;
79790;SDS011;69278;52.220;5.172;2023-05-24T04:57:15;18.05;;;4.95;;
79790;SDS011;69278;52.220;5.172;2023-05-24T04:59:42;14.02;;;4.55;;
79790;SDS011;69278;52.220;5.172;2023-05-24T05:02:08;18.77;;;5.30;;
79790;SDS011;69278;52.220;5.172;2023-05-24T05:04:35;18.67;;;5.60;;
79790;SDS011;69278;52.220;5.172;2023-05-24T05:07:02;16.42;;;4.85;;
79790;SDS011;69278;52.220;5.172;2023-05-24T05:09:28;19.52;;;4.90;;
79790;SDS011;69278;52.220;5.172;2023-05-24T05:11:55;19.40;;;5.40;;
79790;SDS011;69278;52.220;5.172;2023-05-24T05:14:22;25.47;;;5.43;;
79790;SDS011;69278;52.220;5.172;2023-05-24T05:16:48;18.48;;;5.60;;
79790;SDS011;69278;52.220;5.172;2023-05-24T05:19:15;22.40;;;5.60;;
79790;SDS011;69278;52.220;5.172;2023-05-24T05:21:41;23.50;;;5.28;;
79790;SDS011;69278;52.220;5.172;2023-05-24T05:24:08;21.17;;;5.47;;
79790;SDS011;69278;52.220;5.172;2023-05-24T05:26:34;18.47;;;5.43;;
79790;SDS011;69278;52.220;5.172;2023-05-24T05:29:01;21.40;;;5.25;;
79790;SDS011;69278;52.220;5.172;2023-05-24T05:31:28;21.60;;;5.60;;
79790;SDS011;69278;52.220;5.172;2023-05-24T05:33:54;16.17;;;5.57;;
79790;SDS011;69278;52.220;5.172;2023-05-24T05:36:21;15.20;;;4.93;;
79790;SDS011;69278;52.220;5.172;2023-05-24T05:38:47;16.30;;;5.20;;
79790;SDS011;69278;52.220;5.172;2023-05-24T05:41:14;17.65;;;4.88;;
79790;SDS011;69278;52.220;5.172;2023-05-24T05:43:40;18.45;;;4.75;;
79790;SDS011;69278;52.220;5.172;2023-05-24T05:46:07;14.65;;;4.45;;
79790;SDS011;69278;52.220;5.172;2023-05-24T05:48:33;16.95;;;3.70;;
79790;SDS011;69278;52.220;5.172;2023-05-24T05:51:00;12.47;;;3.50;;
79790;SDS011;69278;52.220;5.172;2023-05-24T05:53:27;15.55;;;4.40;;
79790;SDS011;69278;52.220;5.172;2023-05-24T05:55:53;9.68;;;3.08;;
79790;SDS011;69278;52.220;5.172;2023-05-24T05:58:21;9.90;;;3.47;;
79790;SDS011;69278;52.220;5.172;2023-05-24T06:00:47;13.50;;;3.95;;
79790;SDS011;69278;52.220;5.172;2023-05-24T06:03:14;13.30;;;3.80;;
79790;SDS011;69278;52.220;5.172;2023-05-24T06:05:41;13.15;;;3.53;;
79790;SDS011;69278;52.220;5.172;2023-05-24T06:08:07;13.38;;;3.47;;
79790;SDS011;69278;52.220;5.172;2023-05-24T06:10:34;12.15;;;3.30;;
79790;SDS011;69278;52.220;5.172;2023-05-24T06:13:01;11.55;;;3.03;;
79790;SDS011;69278;52.220;5.172;2023-05-24T06:15:29;15.20;;;3.47;;
79790;SDS011;69278;52.220;5.172;2023-05-24T06:17:55;13.00;;;3.20;;
79790;SDS011;69278;52.220;5.172;2023-05-24T06:20:22;11.88;;;3.42;;
79790;SDS011;69278;52.220;5.172;2023-05-24T06:22:49;10.50;;;2.97;;
79790;SDS011;69278;52.220;5.172;2023-05-24T06:25:15;11.70;;;2.70;;
79790;SDS011;69278;52.220;5.172;2023-05-24T06:27:44;9.00;;;2.50;;
79790;SDS011;69278;52.220;5.172;2023-05-24T06:30:11;11.68;;;2.88;;
79790;SDS011;69278;52.220;5.172;2023-05-24T06:32:39;13.23;;;2.60;;
79790;SDS011;69278;52.220;5.172;2023-05-24T06:35:05;12.10;;;2.90;;
79790;SDS011;69278;52.220;5.172;2023-05-24T06:37:33;13.43;;;2.70;;
79790;SDS011;69278;52.220;5.172;2023-05-24T06:39:59;12.00;;;2.70;;
79790;SDS011;69278;52.220;5.172;2023-05-24T06:42:26;14.55;;;2.58;;
79790;SDS011;69278;52.220;5.172;2023-05-24T06:44:53;12.38;;;3.03;;
79790;SDS011;69278;52.220;5.172;2023-05-24T06:47:19;11.52;;;2.92;;
79790;SDS011;69278;52.220;5.172;2023-05-24T06:49:46;9.25;;;2.38;;
79790;SDS011;69278;52.220;5.172;2023-05-24T06:52:14;13.90;;;2.40;;
79790;SDS011;69278;52.220;5.172;2023-05-24T06:54:40;9.80;;;2.80;;
79790;SDS011;69278;52.220;5.172;2023-05-24T06:57:07;10.50;;;2.55;;
79790;SDS011;69278;52.220;5.172;2023-05-24T06:59:34;12.48;;;2.58;;
79790;SDS011;69278;52.220;5.172;2023-05-24T07:02:01;10.68;;;2.50;;
79790;SDS011;69278;52.220;5.172;2023-05-24T07:04:29;9.53;;;2.07;;
79790;SDS011;69278;52.220;5.172;2023-05-24T07:06:56;10.00;;;2.40;;
79790;SDS011;69278;52.220;5.172;2023-05-24T07:09:22;11.00;;;3.05;;
79790;SDS011;69278;52.220;5.172;2023-05-24T07:11:49;9.77;;;2.28;;
79790;SDS011;69278;52.220;5.172;2023-05-24T07:14:16;10.45;;;2.58;;
79790;SDS011;69278;52.220;5.172;2023-05-24T07:16:42;10.60;;;2.50;;
79790;SDS011;69278;52.220;5.172;2023-05-24T07:19:09;12.45;;;2.75;;
79790;SDS011;69278;52.220;5.172;2023-05-24T07:21:35;11.30;;;2.67;;
79790;SDS011;69278;52.220;5.172;2023-05-24T07:24:02;8.68;;;2.70;;
79790;SDS011;69278;52.220;5.172;2023-05-24T07:26:29;12.05;;;2.75;;
79790;SDS011;69278;52.220;5.172;2023-05-24T07:28:55;11.13;;;2.80;;
79790;SDS011;69278;52.220;5.172;2023-05-24T07:31:22;14.02;;;3.05;;
79790;SDS011;69278;52.220;5.172;2023-05-24T07:33:48;10.80;;;2.90;;
79790;SDS011;69278;52.220;5.172;2023-05-24T07:36:15;13.18;;;2.50;;
79790;SDS011;69278;52.220;5.172;2023-05-24T07:38:41;11.60;;;2.70;;
79790;SDS011;69278;52.220;5.172;2023-05-24T07:41:08;15.57;;;3.03;;
79790;SDS011;69278;52.220;5.172;2023-05-24T07:43:35;15.90;;;3.42;;
79790;SDS011;69278;52.220;5.172;2023-05-24T07:46:02;14.80;;;3.22;;
79790;SDS011;69278;52.220;5.172;2023-05-24T07:48:30;13.45;;;2.75;;
79790;SDS011;69278;52.220;5.172;2023-05-24T07:50:56;12.07;;;2.88;;
79790;SDS011;69278;52.220;5.172;2023-05-24T07:53:23;11.83;;;3.23;;
79790;SDS011;69278;52.220;5.172;2023-05-24T07:55:49;11.65;;;3.00;;
79790;SDS011;69278;52.220;5.172;2023-05-24T07:58:16;12.20;;;3.17;;
79790;SDS011;69278;52.220;5.172;2023-05-24T08:00:43;14.63;;;2.80;;
79790;SDS011;69278;52.220;5.172;2023-05-24T08:03:10;11.77;;;2.70;;
79790;SDS011;69278;52.220;5.172;2023-05-24T08:05:39;10.30;;;2.60;;
79790;SDS011;69278;52.220;5.172;2023-05-24T08:08:06;12.68;;;2.70;;
79790;SDS011;69278;52.220;5.172;2023-05-24T08:10:33;8.77;;;2.90;;
79790;SDS011;69278;52.220;5.172;2023-05-24T08:13:00;12.65;;;3.00;;
79790;SDS011;69278;52.220;5.172;2023-05-24T08:15:26;9.15;;;2.58;;
79790;SDS011;69278;52.220;5.172;2023-05-24T08:17:54;12.63;;;2.47;;
79790;SDS011;69278;52.220;5.172;2023-05-24T08:20:20;9.25;;;2.50;;
79790;SDS011;69278;52.220;5.172;2023-05-24T08:22:47;11.68;;;2.63;;
79790;SDS011;69278;52.220;5.172;2023-05-24T08:25:13;10.57;;;2.70;;
79790;SDS011;69278;52.220;5.172;2023-05-24T08:27:41;10.57;;;2.80;;
79790;SDS011;69278;52.220;5.172;2023-05-24T08:30:07;13.37;;;2.60;;
79790;SDS011;69278;52.220;5.172;2023-05-24T08:32:34;13.95;;;2.90;;
79790;SDS011;69278;52.220;5.172;2023-05-24T08:35:01;11.05;;;2.60;;
79790;SDS011;69278;52.220;5.172;2023-05-24T08:37:43;9.82;;;2.58;;
79790;SDS011;69278;52.220;5.172;2023-05-24T08:40:09;8.40;;;2.72;;
79790;SDS011;69278;52.220;5.172;2023-05-24T08:42:39;11.97;;;2.80;;
79790;SDS011;69278;52.220;5.172;2023-05-24T08:45:10;10.48;;;2.38;;
79790;SDS011;69278;52.220;5.172;2023-05-24T08:47:38;10.43;;;2.92;;
79790;SDS011;69278;52.220;5.172;2023-05-24T08:50:05;11.13;;;2.70;;
79790;SDS011;69278;52.220;5.172;2023-05-24T08:52:34;11.13;;;2.72;;
79790;SDS011;69278;52.220;5.172;2023-05-24T08:55:02;14.57;;;2.80;;
79790;SDS011;69278;52.220;5.172;2023-05-24T08:57:31;10.57;;;2.65;;
79790;SDS011;69278;52.220;5.172;2023-05-24T08:59:59;9.40;;;2.72;;
79790;SDS011;69278;52.220;5.172;2023-05-24T09:02:26;12.32;;;2.85;;
79790;SDS011;69278;52.220;5.172;2023-05-24T09:04:53;11.52;;;2.92;;
79790;SDS011;69278;52.220;5.172;2023-05-24T09:07:21;11.23;;;2.70;;
79790;SDS011;69278;52.220;5.172;2023-05-24T09:09:52;10.77;;;2.80;;
79790;SDS011;69278;52.220;5.172;2023-05-24T09:12:23;13.00;;;2.40;;
79790;SDS011;69278;52.220;5.172;2023-05-24T09:15:04;8.52;;;2.20;;
79790;SDS011;69278;52.220;5.172;2023-05-24T09:17:33;10.35;;;2.40;;
79790;SDS011;69278;52.220;5.172;2023-05-24T09:20:00;7.67;;;2.07;;
79790;SDS011;69278;52.220;5.172;2023-05-24T09:22:28;11.70;;;2.63;;
79790;SDS011;69278;52.220;5.172;2023-05-24T09:24:56;13.38;;;2.83;;
79790;SDS011;69278;52.220;5.172;2023-05-24T09:27:24;9.00;;;2.50;;
79790;SDS011;69278;52.220;5.172;2023-05-24T09:29:51;8.85;;;2.70;;
79790;SDS011;69278;52.220;5.172;2023-05-24T09:32:19;10.73;;;2.90;;
79790;SDS011;69278;52.220;5.172;2023-05-24T09:34:50;11.07;;;2.60;;
79790;SDS011;69278;52.220;5.172;2023-05-24T09:37:19;8.93;;;2.80;;
79790;SDS011;69278;52.220;5.172;2023-05-24T09:39:54;8.18;;;2.42;;
79790;SDS011;69278;52.220;5.172;2023-05-24T09:42:22;8.98;;;2.60;;
79790;SDS011;69278;52.220;5.172;2023-05-24T09:45:25;9.33;;;2.63;;
79790;SDS011;69278;52.220;5.172;2023-05-24T09:47:46;10.98;;;2.90;;
79790;SDS011;69278;52.220;5.172;2023-05-24T09:50:14;11.27;;;2.90;;
79790;SDS011;69278;52.220;5.172;2023-05-24T09:52:42;14.82;;;3.20;;
79790;SDS011;69278;52.220;5.172;2023-05-24T09:55:19;11.45;;;3.00;;
79790;SDS011;69278;52.220;5.172;2023-05-24T09:57:50;11.50;;;2.80;;
79790;SDS011;69278;52.220;5.172;2023-05-24T10:00:22;10.10;;;2.75;;
79790;SDS011;69278;52.220;5.172;2023-05-24T10:03:00;12.55;;;2.92;;
79790;SDS011;69278;52.220;5.172;2023-05-24T10:05:34;7.75;;;2.60;;
79790;SDS011;69278;52.220;5.172;2023-05-24T10:08:02;10.82;;;3.20;;
79790;SDS011;69278;52.220;5.172;2023-05-24T10:10:34;12.03;;;2.90;;
79790;SDS011;69278;52.220;5.172;2023-05-24T10:13:01;9.02;;;2.42;;
79790;SDS011;69278;52.220;5.172;2023-05-24T10:15:28;14.93;;;3.00;;
79790;SDS011;69278;52.220;5.172;2023-05-24T10:17:56;10.07;;;3.00;;
79790;SDS011;69278;52.220;5.172;2023-05-24T10:20:23;10.80;;;2.95;;
79790;SDS011;69278;52.220;5.172;2023-05-24T10:22:51;12.97;;;3.17;;
79790;SDS011;69278;52.220;5.172;2023-05-24T10:25:24;12.85;;;3.00;;
79790;SDS011;69278;52.220;5.172;2023-05-24T10:27:57;12.80;;;2.97;;
79790;SDS011;69278;52.220;5.172;2023-05-24T10:31:09;10.45;;;3.10;;
79790;SDS011;69278;52.220;5.172;2023-05-24T10:33:16;8.93;;;2.90;;
79790;SDS011;69278;52.220;5.172;2023-05-24T10:35:44;10.60;;;3.10;;
79790;SDS011;69278;52.220;5.172;2023-05-24T10:38:11;10.73;;;2.83;;
79790;SDS011;69278;52.220;5.172;2023-05-24T10:40:40;9.25;;;2.58;;
79790;SDS011;69278;52.220;5.172;2023-05-24T10:43:08;8.50;;;2.75;;
79790;SDS011;69278;52.220;5.172;2023-05-24T10:45:36;11.60;;;2.67;;
79790;SDS011;69278;52.220;5.172;2023-05-24T10:50:42;10.80;;;2.83;;
79790;SDS011;69278;52.220;5.172;2023-05-24T10:53:16;13.93;;;2.60;;
79790;SDS011;69278;52.220;5.172;2023-05-24T10:55:50;10.57;;;2.75;;
79790;SDS011;69278;52.220;5.172;2023-05-24T10:58:18;7.82;;;2.42;;
79790;SDS011;69278;52.220;5.172;2023-05-24T11:00:45;9.53;;;3.07;;
79790;SDS011;69278;52.220;5.172;2023-05-24T11:03:14;8.05;;;2.42;;
79790;SDS011;69278;52.220;5.172;2023-05-24T11:05:49;8.98;;;2.40;;
79790;SDS011;69278;52.220;5.172;2023-05-24T11:08:22;7.63;;;2.47;;
79790;SDS011;69278;52.220;5.172;2023-05-24T11:11:08;6.72;;;2.30;;
79790;SDS011;69278;52.220;5.172;2023-05-24T11:13:54;10.27;;;2.60;;
79790;SDS011;69278;52.220;5.172;2023-05-24T11:16:32;9.45;;;2.75;;
79790;SDS011;69278;52.220;5.172;2023-05-24T11:19:29;9.20;;;2.55;;
79790;SDS011;69278;52.220;5.172;2023-05-24T11:21:55;10.60;;;2.53;;
79790;SDS011;69278;52.220;5.172;2023-05-24T11:24:24;8.30;;;2.45;;
79790;SDS011;69278;52.220;5.172;2023-05-24T11:26:51;10.13;;;2.50;;
79790;SDS011;69278;52.220;5.172;2023-05-24T11:29:19;9.05;;;2.47;;
79790;SDS011;69278;52.220;5.172;2023-05-24T11:31:52;5.93;;;2.20;;
79790;SDS011;69278;52.220;5.172;2023-05-24T11:34:20;7.45;;;2.03;;
79790;SDS011;69278;52.220;5.172;2023-05-24T11:36:47;8.23;;;2.40;;
79790;SDS011;69278;52.220;5.172;2023-05-24T11:39:14;9.77;;;2.23;;
79790;SDS011;69278;52.220;5.172;2023-05-24T11:41:41;10.05;;;2.67;;
79790;SDS011;69278;52.220;5.172;2023-05-24T11:44:09;14.25;;;2.50;;
79790;SDS011;69278;52.220;5.172;2023-05-24T11:46:37;11.52;;;2.65;;
79790;SDS011;69278;52.220;5.172;2023-05-24T11:49:04;9.68;;;2.40;;
79790;SDS011;69278;52.220;5.172;2023-05-24T11:51:32;7.17;;;2.17;;
79790;SDS011;69278;52.220;5.172;2023-05-24T11:53:59;7.55;;;2.17;;
79790;SDS011;69278;52.220;5.172;2023-05-24T11:56:28;11.68;;;2.42;;
79790;SDS011;69278;52.220;5.172;2023-05-24T11:59:07;8.35;;;2.58;;
79790;SDS011;69278;52.220;5.172;2023-05-24T12:01:39;9.25;;;2.50;;
79790;SDS011;69278;52.220;5.172;2023-05-24T12:04:06;9.77;;;2.37;;
79790;SDS011;69278;52.220;5.172;2023-05-24T12:06:38;10.65;;;2.67;;
79790;SDS011;69278;52.220;5.172;2023-05-24T12:09:06;7.95;;;2.33;;
79790;SDS011;69278;52.220;5.172;2023-05-24T12:11:42;8.20;;;2.35;;
79790;SDS011;69278;52.220;5.172;2023-05-24T12:14:30;10.30;;;2.40;;
79790;SDS011;69278;52.220;5.172;2023-05-24T12:16:59;9.23;;;2.47;;
79790;SDS011;69278;52.220;5.172;2023-05-24T12:19:30;12.10;;;2.40;;
79790;SDS011;69278;52.220;5.172;2023-05-24T12:22:05;8.38;;;2.20;;
79790;SDS011;69278;52.220;5.172;2023-05-24T12:24:33;8.82;;;2.30;;
79790;SDS011;69278;52.220;5.172;2023-05-24T12:27:01;7.22;;;2.22;;
79790;SDS011;69278;52.220;5.172;2023-05-24T12:29:33;6.03;;;2.07;;
79790;SDS011;69278;52.220;5.172;2023-05-24T12:32:00;7.20;;;1.90;;
79790;SDS011;69278;52.220;5.172;2023-05-24T12:34:27;5.43;;;2.10;;
79790;SDS011;69278;52.220;5.172;2023-05-24T12:36:54;7.90;;;2.03;;
79790;SDS011;69278;52.220;5.172;2023-05-24T12:39:22;6.38;;;1.95;;
79790;SDS011;69278;52.220;5.172;2023-05-24T12:41:56;7.77;;;2.20;;
79790;SDS011;69278;52.220;5.172;2023-05-24T12:44:24;11.02;;;2.17;;
79790;SDS011;69278;52.220;5.172;2023-05-24T12:47:00;6.90;;;2.20;;
79790;SDS011;69278;52.220;5.172;2023-05-24T12:49:28;6.22;;;2.22;;
79790;SDS011;69278;52.220;5.172;2023-05-24T12:51:55;5.68;;;2.05;;
79790;SDS011;69278;52.220;5.172;2023-05-24T12:54:23;5.30;;;2.00;;
79790;SDS011;69278;52.220;5.172;2023-05-24T12:56:51;5.93;;;1.70;;
79790;SDS011;69278;52.220;5.172;2023-05-24T12:59:21;5.78;;;2.00;;
79790;SDS011;69278;52.220;5.172;2023-05-24T13:01:48;6.80;;;1.80;;
79790;SDS011;69278;52.220;5.172;2023-05-24T13:04:19;5.55;;;1.73;;
79790;SDS011;69278;52.220;5.172;2023-05-24T13:06:46;7.47;;;2.30;;
79790;SDS011;69278;52.220;5.172;2023-05-24T13:09:14;4.45;;;1.80;;
79790;SDS011;69278;52.220;5.172;2023-05-24T13:11:43;6.15;;;1.95;;
79790;SDS011;69278;52.220;5.172;2023-05-24T13:14:10;6.95;;;2.20;;
79790;SDS011;69278;52.220;5.172;2023-05-24T13:16:37;10.27;;;2.58;;
79790;SDS011;69278;52.220;5.172;2023-05-24T13:19:04;5.87;;;2.10;;
79790;SDS011;69278;52.220;5.172;2023-05-24T13:21:30;6.13;;;2.30;;
79790;SDS011;69278;52.220;5.172;2023-05-24T13:23:57;6.93;;;2.17;;
79790;SDS011;69278;52.220;5.172;2023-05-24T13:26:24;9.15;;;2.10;;
79790;SDS011;69278;52.220;5.172;2023-05-24T13:28:51;7.57;;;2.55;;
79790;SDS011;69278;52.220;5.172;2023-05-24T13:31:37;5.93;;;2.30;;
79790;SDS011;69278;52.220;5.172;2023-05-24T13:34:04;7.28;;;2.40;;
79790;SDS011;69278;52.220;5.172;2023-05-24T13:36:31;8.48;;;2.35;;
79790;SDS011;69278;52.220;5.172;2023-05-24T13:39:00;5.10;;;1.80;;
79790;SDS011;69278;52.220;5.172;2023-05-24T13:41:41;6.30;;;2.00;;
79790;SDS011;69278;52.220;5.172;2023-05-24T13:44:09;6.50;;;2.20;;
79790;SDS011;69278;52.220;5.172;2023-05-24T13:46:36;7.18;;;2.35;;
79790;SDS011;69278;52.220;5.172;2023-05-24T13:49:03;6.97;;;2.30;;
79790;SDS011;69278;52.220;5.172;2023-05-24T13:51:30;7.53;;;2.50;;
79790;SDS011;69278;52.220;5.172;2023-05-24T13:53:58;7.82;;;2.35;;
79790;SDS011;69278;52.220;5.172;2023-05-24T13:56:27;7.87;;;2.30;;
79790;SDS011;69278;52.220;5.172;2023-05-24T13:58:59;10.38;;;2.30;;
79790;SDS011;69278;52.220;5.172;2023-05-24T14:01:27;5.95;;;2.20;;
79790;SDS011;69278;52.220;5.172;2023-05-24T14:03:54;5.63;;;2.20;;
79790;SDS011;69278;52.220;5.172;2023-05-24T14:06:22;7.05;;;2.33;;
79790;SDS011;69278;52.220;5.172;2023-05-24T14:08:51;6.93;;;2.47;;
79790;SDS011;69278;52.220;5.172;2023-05-24T14:11:18;5.35;;;2.35;;
79790;SDS011;69278;52.220;5.172;2023-05-24T14:13:45;9.45;;;2.13;;
79790;SDS011;69278;52.220;5.172;2023-05-24T14:16:16;7.95;;;2.40;;
79790;SDS011;69278;52.220;5.172;2023-05-24T14:18:43;8.90;;;2.50;;
79790;SDS011;69278;52.220;5.172;2023-05-24T14:21:11;8.70;;;2.57;;
79790;SDS011;69278;52.220;5.172;2023-05-24T14:23:37;7.00;;;2.28;;
79790;SDS011;69278;52.220;5.172;2023-05-24T14:26:04;7.85;;;2.42;;
79790;SDS011;69278;52.220;5.172;2023-05-24T14:31:00;5.35;;;2.30;;
79790;SDS011;69278;52.220;5.172;2023-05-24T14:33:28;7.97;;;2.30;;
79790;SDS011;69278;52.220;5.172;2023-05-24T14:35:55;6.90;;;2.25;;
79790;SDS011;69278;52.220;5.172;2023-05-24T14:38:21;6.78;;;2.30;;
79790;SDS011;69278;52.220;5.172;2023-05-24T14:40:49;6.75;;;2.60;;
79790;SDS011;69278;52.220;5.172;2023-05-24T14:43:16;6.90;;;2.20;;
79790;SDS011;69278;52.220;5.172;2023-05-24T14:45:43;8.60;;;2.83;;
79790;SDS011;69278;52.220;5.172;2023-05-24T14:48:10;10.55;;;2.60;;
79790;SDS011;69278;52.220;5.172;2023-05-24T14:50:38;6.15;;;2.25;;
79790;SDS011;69278;52.220;5.172;2023-05-24T14:53:06;6.60;;;2.30;;
79790;SDS011;69278;52.220;5.172;2023-05-24T14:55:37;7.68;;;2.50;;
79790;SDS011;69278;52.220;5.172;2023-05-24T14:58:06;7.17;;;2.37;;